createdAt,value
2018-09-11T00:00:46.990Z,6.17
2018-09-11T00:03:17.038Z,6.30
2018-09-11T00:05:46.970Z,6.40
2018-09-11T00:08:17.010Z,6.60
2018-09-11T00:10:47.054Z,6.40
2018-09-11T00:13:17.008Z,6.20
2018-09-11T00:15:46.094Z,6.73
2018-09-11T00:18:15.217Z,7.23
2018-09-11T00:20:44.382Z,6.30
2018-09-11T00:23:13.517Z,6.77
2018-09-11T00:25:42.590Z,6.50
2018-09-11T00:28:11.642Z,6.40
2018-09-11T00:30:40.802Z,6.33
2018-09-11T00:33:11.266Z,5.70
2018-09-11T00:35:40.318Z,7.10
2018-09-11T00:38:09.435Z,6.70
2018-09-11T00:40:38.555Z,6.07
2018-09-11T00:43:07.687Z,5.90
2018-09-11T00:45:36.756Z,5.90
2018-09-11T00:48:05.844Z,6.10
2018-09-11T00:50:34.953Z,6.08
2018-09-11T00:53:04.080Z,6.40
2018-09-11T00:55:33.151Z,5.92
2018-09-11T00:58:02.279Z,6.03
2018-09-11T01:00:31.384Z,6.10
2018-09-11T01:03:00.503Z,6.07
2018-09-11T01:05:29.686Z,5.25
2018-09-11T01:07:58.835Z,6.10
2018-09-11T01:10:27.941Z,6.63
2018-09-11T01:12:57.022Z,5.50
2018-09-11T01:15:26.108Z,5.63
2018-09-11T01:17:55.218Z,6.05
2018-09-11T01:20:24.330Z,6.25
2018-09-11T01:22:53.453Z,5.85
2018-09-11T01:25:22.578Z,5.80
2018-09-11T01:27:51.702Z,5.40
2018-09-11T01:30:22.174Z,4.93
2018-09-11T01:32:52.300Z,5.53
2018-09-11T01:35:22.190Z,5.70
2018-09-11T01:37:51.312Z,6.70
2018-09-11T01:40:20.467Z,5.80
2018-09-11T01:42:49.567Z,5.57
2018-09-11T01:45:18.717Z,6.17
2018-09-11T01:47:48.534Z,5.97
2018-09-11T01:50:18.467Z,6.10
2018-09-11T01:52:48.621Z,6.08
2018-09-11T01:55:18.587Z,5.97
2018-09-11T01:57:48.539Z,6.17
2018-09-11T02:00:20.747Z,5.67
2018-09-11T02:02:49.891Z,5.47
2018-09-11T02:05:19.019Z,5.73
2018-09-11T02:07:49.061Z,5.97
2018-09-11T02:10:18.587Z,5.80
2018-09-11T02:12:48.817Z,5.37
2018-09-11T02:15:18.925Z,5.87
2018-09-11T02:17:48.738Z,5.17
2018-09-11T02:20:18.911Z,6.33
2018-09-11T02:22:48.811Z,5.47
2018-09-11T02:25:18.713Z,5.90
2018-09-11T02:27:48.831Z,6.17
2018-09-11T02:30:19.076Z,5.22
2018-09-11T02:32:48.885Z,5.80
2018-09-11T02:35:18.769Z,5.73
2018-09-11T02:37:48.982Z,5.72
2018-09-11T02:40:19.156Z,5.95
2018-09-11T02:42:48.950Z,5.30
2018-09-11T02:45:22.925Z,5.70
2018-09-11T02:47:53.257Z,5.40
2018-09-11T02:50:22.435Z,5.27
2018-09-11T02:52:51.567Z,5.27
2018-09-11T02:55:20.625Z,5.50
2018-09-11T02:57:49.705Z,5.50
2018-09-11T03:00:19.168Z,5.58
2018-09-11T03:02:49.078Z,5.60
2018-09-11T03:05:19.189Z,5.10
2018-09-11T03:07:49.104Z,5.73
2018-09-11T03:10:19.245Z,5.10
2018-09-11T03:12:49.143Z,5.50
2018-09-11T03:15:19.257Z,5.25
2018-09-11T03:17:49.181Z,5.10
2018-09-11T03:20:19.298Z,5.70
2018-09-11T03:22:49.242Z,5.33
2018-09-11T03:25:19.225Z,5.58
2018-09-11T03:27:48.314Z,5.50
2018-09-11T03:30:17.418Z,6.00
2018-09-11T03:32:46.437Z,5.93
2018-09-11T03:35:15.543Z,5.63
2018-09-11T03:37:44.605Z,5.57
2018-09-11T03:40:13.677Z,6.10
2018-09-11T03:42:42.839Z,4.90
2018-09-11T03:45:12.141Z,5.33
2018-09-11T03:47:41.357Z,5.70
2018-09-11T03:50:10.415Z,5.10
2018-09-11T03:52:39.609Z,5.33
2018-09-11T03:55:08.777Z,6.30
2018-09-11T03:57:37.819Z,5.47
2018-09-11T04:00:06.971Z,5.40
2018-09-11T04:02:36.071Z,6.25
2018-09-11T04:05:05.169Z,5.42
2018-09-11T04:07:34.298Z,5.30
2018-09-11T04:10:03.402Z,5.93
2018-09-11T04:12:32.557Z,5.43
2018-09-11T04:15:01.740Z,5.33
2018-09-11T04:17:37.343Z,5.37
2018-09-11T04:20:06.539Z,5.47
2018-09-11T04:22:35.697Z,6.05
2018-09-11T04:25:04.790Z,6.25
2018-09-11T04:27:34.186Z,5.62
2018-09-11T04:30:03.331Z,6.10
2018-09-11T04:32:32.387Z,5.57
2018-09-11T04:35:01.434Z,5.40
2018-09-11T04:37:30.533Z,5.17
2018-09-11T04:39:59.734Z,5.30
2018-09-11T04:42:28.778Z,6.47
2018-09-11T04:44:57.889Z,6.30
2018-09-11T04:47:27.008Z,7.08
2018-09-11T04:49:56.136Z,6.12
2018-09-11T04:52:25.193Z,5.47
2018-09-11T04:54:54.259Z,5.33
2018-09-11T04:57:23.302Z,5.60
2018-09-11T04:59:52.447Z,5.63
2018-09-11T05:02:21.787Z,6.60
2018-09-11T05:04:50.842Z,6.20
2018-09-11T05:07:20.327Z,6.08
2018-09-11T05:09:50.221Z,5.87
2018-09-11T05:12:20.186Z,5.78
2018-09-11T05:14:49.245Z,6.28
2018-09-11T05:17:18.316Z,5.97
2018-09-11T05:19:47.378Z,5.70
2018-09-11T05:22:16.438Z,5.93
2018-09-11T05:24:45.537Z,6.63
2018-09-11T05:27:14.767Z,6.00
2018-09-11T05:29:43.773Z,5.60
2018-09-11T05:32:13.334Z,6.40
2018-09-11T05:34:42.728Z,6.10
2018-09-11T05:37:11.823Z,6.20
2018-09-11T05:39:40.998Z,5.50
2018-09-11T05:42:10.138Z,6.30
2018-09-11T05:44:39.209Z,5.87
2018-09-11T05:47:08.290Z,6.43
2018-09-11T05:49:38.104Z,5.37
2018-09-11T05:52:07.570Z,5.78
2018-09-11T05:54:36.664Z,5.90
2018-09-11T05:57:06.462Z,5.58
2018-09-11T05:59:35.946Z,5.75
2018-09-11T06:02:05.047Z,5.77
2018-09-11T06:04:34.076Z,5.80
2018-09-11T06:07:03.096Z,6.22
2018-09-11T06:09:32.195Z,6.37
2018-09-11T06:12:01.274Z,6.17
2018-09-11T06:14:30.330Z,6.63
2018-09-11T06:16:59.467Z,5.53
2018-09-11T06:19:28.571Z,7.08
2018-09-11T06:21:57.628Z,5.83
2018-09-11T06:24:26.725Z,6.20
2018-09-11T06:26:55.869Z,5.75
2018-09-11T06:29:24.948Z,5.60
2018-09-11T06:31:54.093Z,6.03
2018-09-11T06:34:23.336Z,6.30
2018-09-11T06:36:52.427Z,6.10
2018-09-11T06:39:21.518Z,5.57
2018-09-11T06:41:51.301Z,6.00
2018-09-11T06:44:21.237Z,6.17
2018-09-11T06:46:51.365Z,6.53
2018-09-11T06:49:21.349Z,6.30
2018-09-11T06:51:51.254Z,6.13
2018-09-11T06:54:21.291Z,6.20
2018-09-11T07:17:38.608Z,5.87
2018-09-11T07:20:09.967Z,6.10
2018-09-11T07:22:39.054Z,5.62
2018-09-11T07:25:08.689Z,6.58
2018-09-11T07:27:37.888Z,6.83
2018-09-11T07:30:07.490Z,6.07
2018-09-11T07:32:41.110Z,6.10
2018-09-11T07:35:10.700Z,6.33
2018-09-11T07:37:40.133Z,6.35
2018-09-11T07:43:13.751Z,5.57
2018-09-11T07:45:42.920Z,6.23
2018-09-11T07:48:12.490Z,5.90
2018-09-11T07:50:41.812Z,6.00
2018-09-11T07:53:11.501Z,5.77
2018-09-11T07:55:40.786Z,6.30
2018-09-11T07:58:11.146Z,5.67
2018-09-11T08:00:41.964Z,5.60
2018-09-11T08:03:11.876Z,5.93
2018-09-11T08:05:41.084Z,5.80
2018-09-11T08:08:10.653Z,6.20
2018-09-11T08:10:40.842Z,5.70
2018-09-11T08:13:11.217Z,5.70
2018-09-11T08:15:40.487Z,6.10
2018-09-11T08:18:12.197Z,5.90
2018-09-11T08:20:41.345Z,5.93
2018-09-11T08:23:10.861Z,5.90
2018-09-11T08:25:40.860Z,5.55
2018-09-11T08:28:10.409Z,6.10
2018-09-11T08:30:39.717Z,4.80
2018-09-11T08:33:09.326Z,5.50
2018-09-11T08:35:40.498Z,4.67
2018-09-11T08:38:10.203Z,5.27
2018-09-11T08:40:39.409Z,4.97
2018-09-11T08:56:13.321Z,5.43
2018-09-11T08:58:42.695Z,4.30
2018-09-11T09:01:11.718Z,4.07
2018-09-11T09:03:40.957Z,4.53
2018-09-11T09:06:10.557Z,4.43
2018-09-11T09:08:39.808Z,5.60
2018-09-11T09:11:09.656Z,4.40
2018-09-11T09:13:38.923Z,3.60
2018-09-11T09:16:08.148Z,4.20
2018-09-11T09:18:37.284Z,4.20
2018-09-11T09:21:06.852Z,3.87
2018-09-11T09:23:36.086Z,3.95
2018-09-11T09:26:05.604Z,3.80
2018-09-11T09:28:34.962Z,4.20
2018-09-11T09:31:04.554Z,4.27
2018-09-11T09:33:33.765Z,4.67
2018-09-11T09:36:03.307Z,4.55
2018-09-11T09:38:32.496Z,3.80
2018-09-11T09:41:02.041Z,3.70
2018-09-11T09:43:31.216Z,3.60
2018-09-11T09:46:00.721Z,3.97
2018-09-11T09:48:29.928Z,3.60
2018-09-11T09:50:59.204Z,3.73
2018-09-11T09:53:28.423Z,3.70
2018-09-11T09:55:57.605Z,4.20
2018-09-11T09:58:26.829Z,3.80
2018-09-11T10:00:59.052Z,3.50
2018-09-11T10:03:28.217Z,3.80
2018-09-11T10:05:57.459Z,3.83
2018-09-11T10:08:26.636Z,4.03
2018-09-11T10:10:57.685Z,4.87
2018-09-11T10:13:26.852Z,4.10
2018-09-11T10:15:56.029Z,3.70
2018-09-11T10:18:25.198Z,4.60
2018-09-11T10:20:54.363Z,4.47
2018-09-11T10:23:23.583Z,3.90
2018-09-11T10:25:53.642Z,4.45
2018-09-11T10:43:55.281Z,4.40
2018-09-11T10:46:25.116Z,4.37
2018-09-11T10:48:54.768Z,3.70
2018-09-11T10:51:24.334Z,4.00
2018-09-11T10:53:53.805Z,4.33
2018-09-11T11:54:07.144Z,3.23
2018-09-11T11:56:36.616Z,3.30
2018-09-11T11:59:06.501Z,3.87
2018-09-11T12:01:36.286Z,3.60
2018-09-11T12:04:06.157Z,3.97
2018-09-11T12:06:35.592Z,3.25
2018-09-11T12:09:08.348Z,3.23
2018-09-11T12:11:37.676Z,3.30
2018-09-11T12:14:07.364Z,3.57
2018-09-11T12:19:21.615Z,3.83
2018-09-11T12:21:50.890Z,3.50
2018-09-11T12:24:22.914Z,3.80
2018-09-11T12:26:52.463Z,3.57
2018-09-11T12:29:22.151Z,3.63
2018-09-11T12:31:51.301Z,3.27
2018-09-11T12:34:21.084Z,3.40
2018-09-11T12:36:52.458Z,3.40
2018-09-11T12:39:22.183Z,3.40
2018-09-11T12:41:51.436Z,3.87
2018-09-11T12:44:20.982Z,3.63
2018-09-11T12:46:50.235Z,5.30
2018-09-11T12:49:19.827Z,4.00
2018-09-11T12:51:51.540Z,3.73
2018-09-11T12:54:22.839Z,3.50
2018-09-11T12:56:53.813Z,3.67
2018-09-11T12:59:23.035Z,3.90
2018-09-11T13:01:52.243Z,3.63
2018-09-11T13:04:23.510Z,4.53
2018-09-11T13:06:52.662Z,4.00
2018-09-11T13:09:22.174Z,3.37
2018-09-11T13:11:52.213Z,4.20
2018-09-11T13:14:21.748Z,3.90
2018-09-11T13:16:50.947Z,4.10
2018-09-11T13:19:21.969Z,3.20
2018-09-11T13:21:51.162Z,4.00
2018-09-11T13:24:20.368Z,3.80
2018-09-11T13:26:49.627Z,3.57
2018-09-11T13:29:19.257Z,3.57
2018-09-11T13:31:48.437Z,3.20
2018-09-11T13:34:20.600Z,3.63
2018-09-11T13:36:51.538Z,3.50
2018-09-11T13:39:21.077Z,3.97
2018-09-11T13:41:50.281Z,3.60
2018-09-11T13:44:19.433Z,3.80
2018-09-11T13:46:48.721Z,3.80
2018-09-11T13:49:20.127Z,3.90
2018-09-11T13:51:51.274Z,3.80
2018-09-11T13:54:20.866Z,3.53
2018-09-11T13:56:50.036Z,3.30
2018-09-11T13:59:19.744Z,3.63
2018-09-11T14:01:49.042Z,3.90
2018-09-11T14:04:18.634Z,3.40
2018-09-11T14:06:47.847Z,3.63
2018-09-11T14:09:17.369Z,14.13
2018-09-11T14:11:46.523Z,3.87
2018-09-11T14:14:15.996Z,3.80
2018-09-11T14:16:45.207Z,3.40
2018-09-11T14:19:15.118Z,3.43
2018-09-11T14:21:44.517Z,3.12
2018-09-11T14:24:14.875Z,3.55
2018-09-11T14:26:44.614Z,3.40
2018-09-11T14:29:14.274Z,3.05
2018-09-11T14:31:43.427Z,3.47
2018-09-11T14:34:12.957Z,3.80
2018-09-11T14:36:42.161Z,4.08
2018-09-11T14:39:12.304Z,3.67
2018-09-11T14:41:41.504Z,3.30
2018-09-11T14:44:11.024Z,3.47
2018-09-11T14:46:40.220Z,2.97
2018-09-11T14:49:09.714Z,2.80
2018-09-11T14:51:38.907Z,3.33
2018-09-11T14:54:08.549Z,3.20
2018-09-11T14:56:37.776Z,3.30
2018-09-11T14:59:09.917Z,3.30
2018-09-11T15:01:39.087Z,3.20
2018-09-11T15:04:11.263Z,3.83
2018-09-11T15:06:42.667Z,3.08
2018-09-11T15:09:12.413Z,3.67
2018-09-11T15:11:41.591Z,3.25
2018-09-11T15:14:11.170Z,2.80
2018-09-11T15:16:40.400Z,2.87
2018-09-11T15:19:09.953Z,2.80
2018-09-11T15:21:39.149Z,3.23
2018-09-11T15:24:09.162Z,2.73
2018-09-11T15:26:38.320Z,2.57
2018-09-11T15:29:08.284Z,2.77
2018-09-11T15:31:40.278Z,2.60
2018-09-11T15:34:09.878Z,2.62
2018-09-11T15:36:39.048Z,2.70
2018-09-11T15:39:08.643Z,3.10
2018-09-11T15:41:37.873Z,3.07
2018-09-11T15:44:07.525Z,2.50
2018-09-11T15:46:36.629Z,3.50
2018-09-11T15:49:06.222Z,3.10
2018-09-11T15:51:35.426Z,3.00
2018-09-11T15:54:05.022Z,3.27
2018-09-11T15:56:35.157Z,3.23
2018-09-11T15:59:04.770Z,3.10
2018-09-11T16:01:34.019Z,3.00
2018-09-11T16:04:05.358Z,2.90
2018-09-11T16:06:34.582Z,3.00
2018-09-11T16:09:06.876Z,3.63
2018-09-11T16:11:37.012Z,2.93
2018-09-11T16:14:08.423Z,2.90
2018-09-11T16:16:37.618Z,3.40
2018-09-11T16:19:07.202Z,2.80
2018-09-11T16:21:36.372Z,3.20
2018-09-11T16:24:06.053Z,3.07
2018-09-11T16:26:35.229Z,3.33
2018-09-11T16:29:05.105Z,3.20
2018-09-11T16:31:34.317Z,3.30
2018-09-11T16:34:03.907Z,3.85
2018-09-11T16:36:33.078Z,4.37
2018-09-11T16:39:02.428Z,5.40
2018-09-11T16:41:32.030Z,5.30
2018-09-11T16:44:01.241Z,4.30
2018-09-11T16:46:30.470Z,3.87
2018-09-11T16:48:59.701Z,3.80
2018-09-11T16:51:28.957Z,6.30
2018-09-11T16:53:58.140Z,4.77
2018-09-11T16:56:29.130Z,4.90
2018-09-11T16:58:58.289Z,4.60
2018-09-11T17:01:28.415Z,4.75
2018-09-11T17:03:57.990Z,3.63
2018-09-11T17:06:27.776Z,3.40
2018-09-11T17:08:56.998Z,3.70
2018-09-11T17:11:26.139Z,3.40
2018-09-11T17:13:55.360Z,4.07
2018-09-11T17:16:24.561Z,4.60
2018-09-11T17:18:54.776Z,4.87
2018-09-11T17:21:26.132Z,4.53
2018-09-11T17:23:55.296Z,3.87
2018-09-11T17:26:24.894Z,4.10
2018-09-11T17:28:54.161Z,4.27
2018-09-11T17:31:23.905Z,3.93
2018-09-11T17:33:53.910Z,4.22
2018-09-11T17:36:25.229Z,4.20
2018-09-11T17:38:54.459Z,3.93
2018-09-11T17:41:24.862Z,3.73
2018-09-11T17:43:54.157Z,3.93
2018-09-11T17:46:23.516Z,3.93
2018-09-11T17:48:53.654Z,5.30
2018-09-11T17:51:22.850Z,5.47
2018-09-11T17:53:52.113Z,5.33
2018-09-11T17:56:22.478Z,6.87
2018-09-11T17:58:51.720Z,6.33
2018-09-11T18:01:21.497Z,4.97
2018-09-11T18:03:50.806Z,4.60
2018-09-11T18:06:20.405Z,4.40
2018-09-11T18:08:51.439Z,4.30
2018-09-11T18:11:22.649Z,4.17
2018-09-11T18:13:51.849Z,3.80
2018-09-11T18:16:21.139Z,4.37
2018-09-11T18:18:50.396Z,4.30
2018-09-11T18:21:20.112Z,4.07
2018-09-11T18:23:49.352Z,4.00
2018-09-11T18:26:19.066Z,4.07
2018-09-11T18:28:48.313Z,4.17
2018-09-11T18:31:18.000Z,4.00
2018-09-11T18:33:47.294Z,4.57
2018-09-11T18:36:17.159Z,3.93
2018-09-11T18:38:46.522Z,4.40
2018-09-11T18:41:16.247Z,4.87
2018-09-11T18:43:45.559Z,4.33
2018-09-11T18:46:15.351Z,4.17
2018-09-11T18:48:46.354Z,4.67
2018-09-11T18:51:16.043Z,4.60
2018-09-11T18:53:45.408Z,4.90
2018-09-11T18:56:16.181Z,4.57
2018-09-11T18:58:45.618Z,4.78
2018-09-11T19:01:15.273Z,4.22
2018-09-11T19:03:44.815Z,5.43
2018-09-11T19:06:14.427Z,4.95
2018-09-11T19:08:44.013Z,4.85
2018-09-11T19:11:15.657Z,4.35
2018-09-11T19:13:46.029Z,5.33
2018-09-11T19:16:15.931Z,4.67
2018-09-11T19:18:45.548Z,4.87
2018-09-11T19:21:16.620Z,5.07
2018-09-11T19:23:47.029Z,5.28
2018-09-11T19:26:17.876Z,5.30
2018-09-11T19:28:47.994Z,5.67
2018-09-11T19:31:17.846Z,5.67
2018-09-11T19:33:47.407Z,5.97
2018-09-11T19:36:17.282Z,6.00
2018-09-11T19:38:49.531Z,6.00
2018-09-11T19:41:19.488Z,5.50
2018-09-11T19:43:49.401Z,5.73
2018-09-11T19:46:19.308Z,6.07
2018-09-11T19:48:52.920Z,5.70
2018-09-11T19:51:22.360Z,6.47
2018-09-11T19:53:56.705Z,6.20
2018-09-11T19:56:27.191Z,6.43
2018-09-11T19:58:56.708Z,6.33
2018-09-11T20:01:26.310Z,6.40
2018-09-11T20:03:55.800Z,6.87
2018-09-11T20:06:25.616Z,6.57
2018-09-11T20:08:58.283Z,6.30
2018-09-11T20:11:28.588Z,5.93
2018-09-11T20:13:58.920Z,5.83
2018-09-11T20:16:28.259Z,6.63
2018-09-11T20:18:57.542Z,6.57
2018-09-11T20:21:27.228Z,6.77
2018-09-11T20:23:56.559Z,6.33
2018-09-11T20:26:25.858Z,6.17
2018-09-11T20:28:55.314Z,6.50
2018-09-11T20:31:24.731Z,6.50
2018-09-11T20:33:53.929Z,6.50
2018-09-11T20:36:23.621Z,6.97
2018-09-11T20:38:52.883Z,6.00
2018-09-11T20:41:22.405Z,6.57
2018-09-11T20:43:51.658Z,7.03
2018-09-11T20:46:21.251Z,7.20
2018-09-11T20:48:50.450Z,6.90
2018-09-11T20:51:19.975Z,6.60
2018-09-11T20:53:51.239Z,8.15
2018-09-11T20:56:21.465Z,7.12
2018-09-11T20:58:52.460Z,7.90
2018-09-11T21:01:24.977Z,7.43
2018-09-11T21:03:54.278Z,6.63
2018-09-11T21:06:23.948Z,6.73
2018-09-11T21:08:53.313Z,6.50
2018-09-11T21:11:22.673Z,7.17
2018-09-11T21:13:54.476Z,7.30
2018-09-11T21:16:23.646Z,6.97
2018-09-11T21:18:52.845Z,8.20
2018-09-11T21:21:23.254Z,6.77
2018-09-11T21:23:52.678Z,7.03
2018-09-11T21:26:22.423Z,6.90
2018-09-11T21:28:51.903Z,6.63
2018-09-11T21:31:21.512Z,7.70
2018-09-11T21:33:52.527Z,6.93
2018-09-11T21:36:22.291Z,6.80
2018-09-11T21:38:51.450Z,7.87
2018-09-11T21:41:20.974Z,6.70
2018-09-11T21:43:50.164Z,6.60
2018-09-11T21:46:19.924Z,6.83
2018-09-11T21:48:50.960Z,6.90
2018-09-11T21:51:20.958Z,6.90
2018-09-11T21:53:52.169Z,7.50
2018-09-11T21:56:21.381Z,7.70
2018-09-11T21:58:52.470Z,6.03
2018-09-11T22:01:27.146Z,6.53
2018-09-11T22:03:58.601Z,6.33
2018-09-11T22:06:28.150Z,6.50
2018-09-11T22:08:57.415Z,7.27
2018-09-11T22:11:28.770Z,6.00
2018-09-11T22:13:57.961Z,7.10
2018-09-11T22:16:29.217Z,6.50
2018-09-11T22:18:58.447Z,6.43
2018-09-11T22:21:31.934Z,6.73
2018-09-11T22:24:01.439Z,6.47
2018-09-11T22:26:31.116Z,6.80
2018-09-11T22:29:00.553Z,7.07
2018-09-11T22:31:30.301Z,6.20
2018-09-11T22:33:59.523Z,6.70
2018-09-11T22:36:28.998Z,6.50
2018-09-11T22:38:58.211Z,5.80
2018-09-11T22:41:27.839Z,7.20
2018-09-11T22:43:57.003Z,6.67
2018-09-11T22:46:26.680Z,6.93
2018-09-11T22:48:55.897Z,6.60
2018-09-11T22:51:25.421Z,7.00
2018-09-11T22:53:54.578Z,6.77
2018-09-11T22:56:24.185Z,7.17
2018-09-11T22:58:55.162Z,7.20
2018-09-11T23:01:24.708Z,7.43
2018-09-11T23:03:53.917Z,6.20
2018-09-11T23:06:23.573Z,6.43
2018-09-11T23:08:52.781Z,6.53
2018-09-11T23:11:22.313Z,6.83
2018-09-11T23:13:51.526Z,6.33
2018-09-11T23:16:20.695Z,6.60
2018-09-11T23:18:49.883Z,6.20
2018-09-11T23:21:19.359Z,7.28
2018-09-11T23:23:50.289Z,6.27
2018-09-11T23:26:21.451Z,6.58
2018-09-11T23:28:50.651Z,6.80
2018-09-11T23:31:20.274Z,6.60
2018-09-11T23:33:49.501Z,7.10
2018-09-11T23:36:20.996Z,6.75
2018-09-11T23:38:50.142Z,6.30
2018-09-11T23:41:19.719Z,7.00
2018-09-11T23:43:49.149Z,7.23
2018-09-11T23:46:18.707Z,7.03
2018-09-11T23:48:47.864Z,7.67
2018-09-11T23:51:17.429Z,6.90
2018-09-11T23:53:46.587Z,7.47
2018-09-11T23:56:17.880Z,7.17
2018-09-11T23:58:47.177Z,7.07
